Observation data for Goodlett on 03/10/2018      Previous  Date  Next       Current Mesonet Observations  Soil Data  Daily Summary Page  Observations in Plain Language
KGDS 100600Z 35008KT 10/M02 A2976 RMK A01 T00991024  RH  042%=      5-min Rain = 0
KGDS 100605Z 36008KT 11/M02 A2976 RMK A01 T01071023  RH  041%=      5-min Rain = 0
KGDS 100610Z 01007KT 10/M03 A2975 RMK A01 T01031027  RH  041%=      5-min Rain = 0
KGDS 100615Z 00007KT 10/M03 A2975 RMK A01 T00991025  RH  042%=      5-min Rain = 0
KGDS 100620Z 35008KT 10/M03 A2975 RMK A01 T00971025  RH  043%=      5-min Rain = 0
KGDS 100625Z 35008KT 10/M02 A2975 RMK A01 T00981024  RH  043%=      5-min Rain = 0
KGDS 100630Z 35008KT 10/M03 A2975 RMK A01 T01001025  RH  042%=      5-min Rain = 0
KGDS 100635Z 35009KT 10/M03 A2975 RMK A01 T01001025  RH  042%=      5-min Rain = 0
KGDS 100640Z 35009KT 10/M02 A2975 RMK A01 T01021024  RH  042%=      5-min Rain = 0
KGDS 100645Z 35009KT 10/M03 A2975 RMK A01 T01011026  RH  041%=      5-min Rain = 0
KGDS 100650Z 35008KT 10/M03 A2975 RMK A01 T01021026  RH  041%=      5-min Rain = 0
KGDS 100655Z 34007KT 10/M03 A2976 RMK A01 T01011027  RH  041%=      5-min Rain = 0
KGDS 100700Z 33007KT 10/M03 A2976 RMK A01 T01011027  RH  041%=      5-min Rain = 0
KGDS 100705Z 32010KT 10/M03 A2977 RMK A01 T00991027  RH  041%=      5-min Rain = 0
KGDS 100710Z 32009KT 10/M03 A2977 RMK A01 T01011028  RH  041%=      5-min Rain = 0
KGDS 100715Z 33009KT 10/M03 A2976 RMK A01 T01031028  RH  040%=      5-min Rain = 0
KGDS 100720Z 33009KT 10/M03 A2976 RMK A01 T01041030  RH  039%=      5-min Rain = 0
KGDS 100725Z 34010KT 10/M03 A2976 RMK A01 T01031031  RH  039%=      5-min Rain = 0
KGDS 100730Z 34009KT 10/M03 A2976 RMK A01 T01041032  RH  039%=      5-min Rain = 0
KGDS 100735Z 35009KT 10/M03 A2976 RMK A01 T01011033  RH  039%=      5-min Rain = 0
KGDS 100740Z 35009KT 10/M03 A2976 RMK A01 T00971034  RH  040%=      5-min Rain = 0
KGDS 100745Z 35009KT 10/M03 A2976 RMK A01 T00971033  RH  040%=      5-min Rain = 0
KGDS 100750Z 36008KT 10/M03 A2975 RMK A01 T01011031  RH  040%=      5-min Rain = 0
KGDS 100755Z 00008KT 10/M03 A2975 RMK A01 T01011034  RH  039%=      5-min Rain = 0
KGDS 100800Z 00007KT 10/M03 A2975 RMK A01 T00961032  RH  041%=      5-min Rain = 0
KGDS 100805Z 00007KT 10/M03 A2975 RMK A01 T00951032  RH  041%=      5-min Rain = 0
KGDS 100810Z 01006KT 10/M03 A2974 RMK A01 T00971030  RH  041%=      5-min Rain = 0
KGDS 100815Z 01006KT 10/M03 A2974 RMK A01 T00951032  RH  041%=      5-min Rain = 0
KGDS 100820Z 01006KT 09/M03 A2974 RMK A01 T00931031  RH  042%=      5-min Rain = 0
KGDS 100825Z 01006KT 09/M03 A2974 RMK A01 T00911031  RH  043%=      5-min Rain = 0
KGDS 100830Z 01006KT 09/M03 A2974 RMK A01 T00931029  RH  043%=      5-min Rain = 0
KGDS 100835Z 00007KT 09/M03 A2974 RMK A01 T00921032  RH  042%=      5-min Rain = 0
KGDS 100840Z 01007KT 09/M03 A2973 RMK A01 T00901030  RH  043%=      5-min Rain = 0
KGDS 100845Z 01007KT 10/M03 A2973 RMK A01 T00951030  RH  042%=      5-min Rain = 0
KGDS 100850Z 00007KT 09/M03 A2973 RMK A01 T00911030  RH  043%=      5-min Rain = 0
KGDS 100855Z 00007KT 09/M03 A2973 RMK A01 T00901029  RH  043%=      5-min Rain = 0
KGDS 100900Z 00007KT 09/M03 A2973 RMK A01 T00871029  RH  044%=      5-min Rain = 0
KGDS 100905Z 00007KT 09/M03 A2972 RMK A01 T00861028  RH  045%=      5-min Rain = 0
KGDS 100910Z 00008KT 09/M03 A2972 RMK A01 T00881025  RH  046%=      5-min Rain = 0
KGDS 100915Z 01008KT 09/M02 A2972 RMK A01 T00931022  RH  045%=      5-min Rain = 0
KGDS 100920Z 00007KT 10/M02 A2972 RMK A01 T00951023  RH  044%=      5-min Rain = 0
KGDS 100925Z 01007KT 09/M02 A2972 RMK A01 T00911024  RH  045%=      5-min Rain = 0
KGDS 100930Z 01006KT 09/M02 A2971 RMK A01 T00871024  RH  046%=      5-min Rain = 0
KGDS 100935Z 36006KT 09/M02 A2971 RMK A01 T00851022  RH  047%=      5-min Rain = 0
KGDS 100940Z 00006KT 09/M02 A2971 RMK A01 T00861020  RH  048%=      5-min Rain = 0
KGDS 100945Z 01006KT 09/M02 A2971 RMK A01 T00891018  RH  047%=      5-min Rain = 0
KGDS 100950Z 35006KT 09/M02 A2971 RMK A01 T00861019  RH  048%=      5-min Rain = 0
KGDS 100955Z 36005KT 09/M02 A2971 RMK A01 T00851019  RH  049%=      5-min Rain = 0
KGDS 101000Z 35005KT 09/M02 A2971 RMK A01 T00861017  RH  049%=      5-min Rain = 0
KGDS 101005Z 34005KT 09/M02 A2971 RMK A01 T00871018  RH  048%=      5-min Rain = 0
KGDS 101010Z 33004KT 08/M02 A2971 RMK A01 T00841019  RH  049%=      5-min Rain = 0
KGDS 101015Z 32005KT 09/M02 A2972 RMK A01 T00851018  RH  049%=      5-min Rain = 0
KGDS 101020Z 34005KT 08/M02 A2971 RMK A01 T00841019  RH  049%=      5-min Rain = 0
KGDS 101025Z 34006KT 08/M02 A2971 RMK A01 T00821019  RH  049%=      5-min Rain = 0
KGDS 101030Z 32007KT 08/M02 A2972 RMK A01 T00791020  RH  050%=      5-min Rain = 0
KGDS 101035Z 32008KT 08/M02 A2972 RMK A01 T00801018  RH  051%=      5-min Rain = 0
KGDS 101040Z 32008KT 08/M02 A2972 RMK A01 T00791019  RH  051%=      5-min Rain = 0
KGDS 101045Z 32009KT 08/M02 A2972 RMK A01 T00771019  RH  051%=      5-min Rain = 0
KGDS 101050Z 31009KT 08/M02 A2972 RMK A01 T00761021  RH  051%=      5-min Rain = 0
KGDS 101055Z 31010KT 08/M02 A2972 RMK A01 T00761021  RH  051%=      5-min Rain = 0
KGDS 101100Z 31009KT 07/M02 A2973 RMK A01 T00741024  RH  050%=      5-min Rain = 0
KGDS 101105Z 32009KT 07/M02 A2973 RMK A01 T00741022  RH  051%=      5-min Rain = 0
KGDS 101110Z 31009KT 08/M02 A2973 RMK A01 T00751021  RH  051%=      5-min Rain = 0
KGDS 101115Z 30009KT 08/M02 A2973 RMK A01 T00761020  RH  051%=      5-min Rain = 0
KGDS 101120Z 30009KT 08/M02 A2974 RMK A01 T00761021  RH  051%=      5-min Rain = 0
KGDS 101125Z 30009KT 07/M03 A2974 RMK A01 T00721025  RH  051%=      5-min Rain = 0
KGDS 101130Z 30010KT 07/M03 A2974 RMK A01 T00731032  RH  047%=      5-min Rain = 0
KGDS 101135Z 29010KT 07/M03 A2974 RMK A01 T00721034  RH  048%=      5-min Rain = 0
KGDS 101140Z 29010KT 07/M04 A2974 RMK A01 T00711035  RH  047%=      5-min Rain = 0
KGDS 101145Z 30009KT 07/M04 A2974 RMK A01 T00721038  RH  046%=      5-min Rain = 0
KGDS 101150Z 30009KT 07/M04 A2974 RMK A01 T00721040  RH  045%=      5-min Rain = 0
KGDS 101155Z 31011KT 07/M04 A2974 RMK A01 T00721042  RH  045%=      5-min Rain = 0
KGDS 101200Z 31010KT 07/M04 A2974 RMK A01 T00711043  RH  045%=      5-min Rain = 0
KGDS 101205Z 31010KT 07/M04 A2974 RMK A01 T00691044  RH  045%=      5-min Rain = 0
KGDS 101210Z 31009KT 07/M04 A2974 RMK A01 T00651044  RH  046%=      5-min Rain = 0
KGDS 101215Z 31009KT 06/M04 A2974 RMK A01 T00621044  RH  047%=      5-min Rain = 0
KGDS 101220Z 31009KT 06/M04 A2975 RMK A01 T00611044  RH  047%=      5-min Rain = 0
KGDS 101225Z 30009KT 06/M05 A2975 RMK A01 T00621045  RH  047%=      5-min Rain = 0
KGDS 101230Z 31009KT 06/M05 A2975 RMK A01 T00621045  RH  047%=      5-min Rain = 0
KGDS 101235Z 31009KT 06/M05 A2975 RMK A01 T00631045  RH  046%=      5-min Rain = 0
KGDS 101240Z 31008KT 06/M05 A2976 RMK A01 T00631045  RH  047%=      5-min Rain = 0
KGDS 101245Z 31007KT 06/M05 A2975 RMK A01 T00611045  RH  047%=      5-min Rain = 0
KGDS 101250Z 30007KT 06/M04 A2976 RMK A01 T00611044  RH  047%=      5-min Rain = 0
KGDS 101255Z 31007KT 06/M04 A2976 RMK A01 T00621043  RH  048%=      5-min Rain = 0
KGDS 101300Z 30007KT 06/M04 A2976 RMK A01 T00621041  RH  048%=      5-min Rain = 0
KGDS 101305Z 30007KT 06/M04 A2976 RMK A01 T00621041  RH  048%=      5-min Rain = 0
KGDS 101310Z 30008KT 06/M04 A2976 RMK A01 T00621040  RH  049%=      5-min Rain = 0
KGDS 101315Z 30008KT 06/M04 A2976 RMK A01 T00621038  RH  049%=      5-min Rain = 0
KGDS 101320Z 29008KT 06/M04 A2976 RMK A01 T00631037  RH  049%=      5-min Rain = 0
KGDS 101325Z 29007KT 06/M04 A2976 RMK A01 T00641035  RH  050%=      5-min Rain = 0
KGDS 101330Z 28007KT 06/M03 A2976 RMK A01 T00641034  RH  050%=      5-min Rain = 0
KGDS 101335Z 28006KT 06/M03 A2976 RMK A01 T00641032  RH  051%=      5-min Rain = 0
KGDS 101340Z 27005KT 07/M03 A2977 RMK A01 T00651031  RH  051%=      5-min Rain = 0
KGDS 101345Z 26005KT 07/M03 A2977 RMK A01 T00661029  RH  051%=      5-min Rain = 0
KGDS 101350Z 27004KT 07/M03 A2977 RMK A01 T00691027  RH  051%=      5-min Rain = 0
KGDS 101355Z 27005KT 07/M03 A2977 RMK A01 T00711026  RH  051%=      5-min Rain = 0
KGDS 101400Z 27005KT 07/M02 A2978 RMK A01 T00741024  RH  051%=      5-min Rain = 0
KGDS 101405Z 27005KT 08/M02 A2978 RMK A01 T00761021  RH  051%=      5-min Rain = 0
KGDS 101410Z 28006KT 08/M02 A2978 RMK A01 T00791019  RH  051%=      5-min Rain = 0
KGDS 101415Z 28005KT 08/M02 A2978 RMK A01 T00821016  RH  051%=      5-min Rain = 0
KGDS 101420Z 29007KT 09/M01 A2979 RMK A01 T00851010  RH  052%=      5-min Rain = 0
KGDS 101425Z 29005KT 09/M01 A2979 RMK A01 T00881007  RH  052%=      5-min Rain = 0
KGDS 101430Z 30007KT 09/M00 A2979 RMK A01 T00901003  RH  052%=      5-min Rain = 0
KGDS 101435Z 31007KT 09/00 A2979 RMK A01 T009200-0  RH  053%=      5-min Rain = 0
KGDS 101440Z 32007KT 09/00 A2979 RMK A01 T00940002  RH  053%=      5-min Rain = 0
KGDS 101445Z 32007KT 10/00 A2979 RMK A01 T00960003  RH  053%=      5-min Rain = 0
KGDS 101450Z 32006KT 10/00 A2979 RMK A01 T00980003  RH  052%=      5-min Rain = 0
KGDS 101455Z 32006KT 10/01 A2979 RMK A01 T01020005  RH  052%=      5-min Rain = 0
KGDS 101500Z 31006KT 10/01 A298 RMK A01 T01040007  RH  052%=      5-min Rain = 0
KGDS 101505Z 31007KT 11/01 A298 RMK A01 T01070011  RH  052%=      5-min Rain = 0
KGDS 101510Z 31006KT 11/01 A2979 RMK A01 T01100013  RH  052%=      5-min Rain = 0
KGDS 101515Z 32006KT 11/02 A2979 RMK A01 T01130016  RH  052%=      5-min Rain = 0
KGDS 101520Z 33005KT 12/02 A2979 RMK A01 T01170020  RH  052%=      5-min Rain = 0
KGDS 101525Z 34005KT 12/02 A2979 RMK A01 T01210022  RH  052%=      5-min Rain = 0
KGDS 101530Z 34005KT 13/02 A2979 RMK A01 T01260024  RH  050%=      5-min Rain = 0
KGDS 101535Z 33006KT 13/03 A2979 RMK A01 T01270026  RH  051%=      5-min Rain = 0
KGDS 101540Z 32005KT 13/03 A2979 RMK A01 T01300026  RH  050%=      5-min Rain = 0
KGDS 101545Z 32005KT 13/03 A2979 RMK A01 T01310028  RH  050%=      5-min Rain = 0
KGDS 101550Z 33004KT 14/03 A2979 RMK A01 T01360030  RH  049%=      5-min Rain = 0
KGDS 101555Z 32005KT 14/03 A2979 RMK A01 T01410032  RH  049%=      5-min Rain = 0
KGDS 101600Z 32007KT 15/04 A2979 RMK A01 T01450040  RH  050%=      5-min Rain = 0
KGDS 101605Z 32006KT 15/04 A2979 RMK A01 T01470041  RH  050%=      5-min Rain = 0
KGDS 101610Z 32005KT 15/04 A2979 RMK A01 T01500041  RH  049%=      5-min Rain = 0
KGDS 101615Z 34007KT 15/04 A2979 RMK A01 T01530043  RH  048%=      5-min Rain = 0
KGDS 101620Z 34008KT 16/05 A2979 RMK A01 T01610046  RH  047%=      5-min Rain = 0
KGDS 101625Z 33007KT 17/05 A2979 RMK A01 T01650047  RH  046%=      5-min Rain = 0
KGDS 101630Z 34008KT 17/05 A2978 RMK A01 T01690046  RH  045%=      5-min Rain = 0
KGDS 101635Z 33008KT 17/05 A2978 RMK A01 T01690045  RH  044%=      5-min Rain = 0
KGDS 101640Z 33008KT 17/04 A2978 RMK A01 T01700042  RH  043%=      5-min Rain = 0
KGDS 101645Z 33007KT 17/04 A2978 RMK A01 T01740043  RH  042%=      5-min Rain = 0
KGDS 101650Z 34007KT 17/04 A2978 RMK A01 T01740041  RH  042%=      5-min Rain = 0
KGDS 101655Z 34007KT 18/04 A2978 RMK A01 T01770040  RH  041%=      5-min Rain = 0
KGDS 101700Z 33007KT 18/04 A2978 RMK A01 T01790039  RH  040%=      5-min Rain = 0
KGDS 101705Z 31006KT 18/04 A2978 RMK A01 T01820040  RH  039%=      5-min Rain = 0
KGDS 101710Z 32004KT 19/04 A2977 RMK A01 T01860040  RH  039%=      5-min Rain = 0
KGDS 101715Z 31004KT 19/04 A2977 RMK A01 T01870040  RH  038%=      5-min Rain = 0
KGDS 101720Z 33004KT 19/04 A2976 RMK A01 T01900039  RH  037%=      5-min Rain = 0
KGDS 101725Z 33003KT 20/04 A2976 RMK A01 T01950039  RH  036%=      5-min Rain = 0
KGDS 101730Z 33003KT 20/04 A2976 RMK A01 T02020037  RH  034%=      5-min Rain = 0
KGDS 101735Z 32002KT 20/04 A2976 RMK A01 T02020036  RH  034%=      5-min Rain = 0
KGDS 101740Z 01001KT 21/04 A2976 RMK A01 T02090035  RH  032%=      5-min Rain = 0
KGDS 101745Z 31003KT 21/03 A2976 RMK A01 T02100031  RH  031%=      5-min Rain = 0
KGDS 101750Z 28002KT 21/03 A2976 RMK A01 T02120030  RH  031%=      5-min Rain = 0
KGDS 101755Z 23001KT 22/03 A2975 RMK A01 T02160032  RH  030%=      5-min Rain = 0
KGDS 101800Z 25005KT 22/02 A2975 RMK A01 T02200017  RH  026%=      5-min Rain = 0
KGDS 101805Z 26003G8KT 22/02 A2975 RMK A01 T02210020  RH  027%=      5-min Rain = 0
KGDS 101810Z 29004KT 22/01 A2975 RMK A01 T02230014  RH  025%=      5-min Rain = 0
KGDS 101815Z 27003KT 23/01 A2975 RMK A01 T02250011  RH  025%=      5-min Rain = 0
KGDS 101820Z 18001KT 23/01 A2974 RMK A01 T02290011  RH  024%=      5-min Rain = 0
KGDS 101825Z 24004KT 23/M00 A2974 RMK A01 T02331003  RH  021%=      5-min Rain = 0
KGDS 101830Z 25006KT 24/M01 A2974 RMK A01 T02381005  RH  020%=      5-min Rain = 0
KGDS 101835Z 28004KT 24/M03 A2974 RMK A01 T02371031  RH  017%=      5-min Rain = 0
KGDS 101840Z 29004KT 24/M02 A2973 RMK A01 T02401017  RH  018%=      5-min Rain = 0
KGDS 101845Z 24007KT 24/M01 A2973 RMK A01 T02411012  RH  019%=      5-min Rain = 0
KGDS 101850Z 22003KT 24/M02 A2973 RMK A01 T02391016  RH  019%=      5-min Rain = 0
KGDS 101855Z 24004KT 24/M02 A2972 RMK A01 T02411021  RH  018%=      5-min Rain = 0
KGDS 101900Z 23007KT 25/M03 A2972 RMK A01 T02451029  RH  016%=      5-min Rain = 0
KGDS 101905Z 25008KT 25/M04 A2972 RMK A01 T02461036  RH  015%=      5-min Rain = 0
KGDS 101910Z 21004KT 25/M04 A2972 RMK A01 T02451037  RH  015%=      5-min Rain = 0
KGDS 101915Z 25007KT 25/M04 A2971 RMK A01 T02501038  RH  015%=      5-min Rain = 0
KGDS 101920Z 24005KT 25/M04 A2971 RMK A01 T02501040  RH  015%=      5-min Rain = 0
KGDS 101925Z 25006KT 26/M04 A2971 RMK A01 T02551039  RH  014%=      5-min Rain = 0
KGDS 101930Z 27006KT 26/M04 A2971 RMK A01 T02591040  RH  014%=      5-min Rain = 0
KGDS 101935Z 29006KT 26/M04 A297 RMK A01 T02601041  RH  014%=      5-min Rain = 0
KGDS 101940Z 27007G12KT 26/M05 A297 RMK A01 T02591046  RH  013%=      5-min Rain = 0
KGDS 101945Z 29008KT 26/M05 A297 RMK A01 T02611048  RH  013%=      5-min Rain = 0
KGDS 101950Z 28006G11KT 26/M05 A2969 RMK A01 T02611047  RH  013%=      5-min Rain = 0
KGDS 101955Z 27003G12KT 26/M05 A2969 RMK A01 T02631045  RH  013%=      5-min Rain = 0
KGDS 102000Z 28007G14KT 27/M05 A2969 RMK A01 T02671047  RH  012%=      5-min Rain = 0
KGDS 102005Z 28005G12KT 27/M05 A2968 RMK A01 T02681048  RH  012%=      5-min Rain = 0
KGDS 102010Z 30007G12KT 27/M05 A2968 RMK A01 T02711051  RH  012%=      5-min Rain = 0
KGDS 102015Z 32004KT 27/M06 A2968 RMK A01 T02671055  RH  012%=      5-min Rain = 0
KGDS 102020Z 27007KT 27/M06 A2968 RMK A01 T02681060  RH  011%=      5-min Rain = 0
KGDS 102025Z 29005G10KT 27/M06 A2968 RMK A01 T02681062  RH  011%=      5-min Rain = 0
KGDS 102030Z 30008G14KT 27/M07 A2968 RMK A01 T02701071  RH  010%=      5-min Rain = 0
KGDS 102035Z 27010G17KT 27/M08 A2967 RMK A01 T02741080  RH  009%=      5-min Rain = 0
KGDS 102040Z 28008G13KT 28/M08 A2967 RMK A01 T02751076  RH  010%=      5-min Rain = 0
KGDS 102045Z 29010G16KT 28/M08 A2967 RMK A01 T02761077  RH  009%=      5-min Rain = 0
KGDS 102050Z 30007G13KT 28/M08 A2967 RMK A01 T02781078  RH  009%=      5-min Rain = 0
KGDS 102055Z 30008G13KT 28/M08 A2967 RMK A01 T02781077  RH  009%=      5-min Rain = 0
KGDS 102100Z 29010G15KT 28/M08 A2967 RMK A01 T02831079  RH  009%=      5-min Rain = 0
KGDS 102105Z 30010G15KT 28/M08 A2967 RMK A01 T02831076  RH  009%=      5-min Rain = 0
KGDS 102110Z 29009KT 28/M08 A2967 RMK A01 T02801076  RH  009%=      5-min Rain = 0
KGDS 102115Z 28006KT 28/M08 A2967 RMK A01 T02831075  RH  009%=      5-min Rain = 0
KGDS 102120Z 29009G16KT 29/M08 A2967 RMK A01 T02851078  RH  009%=      5-min Rain = 0
KGDS 102125Z 28009G14KT 28/M09 A2967 RMK A01 T02831092  RH  008%=      5-min Rain = 0
KGDS 102130Z 27010G15KT 28/M09 A2967 RMK A01 T02831093  RH  008%=      5-min Rain = 0
KGDS 102135Z 25010G15KT 28/M09 A2967 RMK A01 T02831089  RH  008%=      5-min Rain = 0
KGDS 102140Z 29007KT 28/M09 A2967 RMK A01 T02831085  RH  009%=      5-min Rain = 0
KGDS 102145Z 29010G15KT 28/M08 A2967 RMK A01 T02821083  RH  009%=      5-min Rain = 0
KGDS 102150Z 31005G10KT 28/M08 A2967 RMK A01 T02821080  RH  009%=      5-min Rain = 0
KGDS 102155Z 32009G14KT 28/M08 A2967 RMK A01 T02841080  RH  009%=      5-min Rain = 0
KGDS 102200Z 29009G14KT 28/M08 A2967 RMK A01 T02831079  RH  009%=      5-min Rain = 0
KGDS 102205Z 28005KT 28/M08 A2967 RMK A01 T02841078  RH  009%=      5-min Rain = 0
KGDS 102210Z 32010G15KT 29/M08 A2967 RMK A01 T02871081  RH  009%=      5-min Rain = 0
KGDS 102215Z 33010KT 29/M09 A2967 RMK A01 T02851085  RH  008%=      5-min Rain = 0
KGDS 102220Z 33009KT 29/M08 A2967 RMK A01 T02851082  RH  009%=      5-min Rain = 0
KGDS 102225Z 32006KT 29/M08 A2967 RMK A01 T02851083  RH  009%=      5-min Rain = 0
KGDS 102230Z 30006G12KT 28/M09 A2967 RMK A01 T02821085  RH  009%=      5-min Rain = 0
KGDS 102235Z 35004KT 28/M09 A2967 RMK A01 T02831085  RH  008%=      5-min Rain = 0
KGDS 102240Z 35006KT 28/M08 A2967 RMK A01 T02841084  RH  009%=      5-min Rain = 0
KGDS 102245Z 35008KT 29/M08 A2967 RMK A01 T02851082  RH  009%=      5-min Rain = 0
KGDS 102250Z 35009G14KT 28/M08 A2967 RMK A01 T02831081  RH  009%=      5-min Rain = 0
KGDS 102255Z 34007G13KT 28/M08 A2967 RMK A01 T02821078  RH  009%=      5-min Rain = 0
KGDS 102300Z 00006KT 28/M07 A2967 RMK A01 T02811073  RH  009%=      5-min Rain = 0
KGDS 102305Z 02007KT 28/M07 A2967 RMK A01 T02831068  RH  010%=      5-min Rain = 0
KGDS 102310Z 02009KT 28/M07 A2967 RMK A01 T02811067  RH  010%=      5-min Rain = 0
KGDS 102315Z 01008KT 28/M07 A2967 RMK A01 T02791067  RH  010%=      5-min Rain = 0
KGDS 102320Z 02007G12KT 28/M06 A2967 RMK A01 T02771064  RH  010%=      5-min Rain = 0
KGDS 102325Z 02007KT 27/M06 A2968 RMK A01 T02731060  RH  011%=      5-min Rain = 0
KGDS 102330Z 02008KT 27/M06 A2968 RMK A01 T02701059  RH  011%=      5-min Rain = 0
KGDS 102335Z 04008KT 27/M06 A2968 RMK A01 T02691057  RH  011%=      5-min Rain = 0
KGDS 102340Z 03008KT 26/M06 A2969 RMK A01 T02641059  RH  012%=      5-min Rain = 0
KGDS 102345Z 03005KT 26/M06 A2969 RMK A01 T02591061  RH  012%=      5-min Rain = 0
KGDS 102350Z 04005KT 25/M06 A2969 RMK A01 T02501060  RH  012%=      5-min Rain = 0
KGDS 102355Z 04005KT 25/M06 A2969 RMK A01 T02461061  RH  013%=      5-min Rain = 0
KGDS 110000Z 04006KT 24/M06 A297 RMK A01 T02431062  RH  013%=      5-min Rain = 0
KGDS 110005Z 05005KT 24/M06 A297 RMK A01 T02401060  RH  013%=      5-min Rain = 0
KGDS 110010Z 05006KT 24/M06 A297 RMK A01 T02371059  RH  014%=      5-min Rain = 0
KGDS 110015Z 06006KT 23/M06 A297 RMK A01 T02341057  RH  014%=      5-min Rain = 0
KGDS 110020Z 06006KT 23/M06 A297 RMK A01 T02301057  RH  014%=      5-min Rain = 0
KGDS 110025Z 06006KT 23/M06 A297 RMK A01 T02311056  RH  014%=      5-min Rain = 0
KGDS 110030Z 05007KT 23/M06 A297 RMK A01 T02271057  RH  015%=      5-min Rain = 0
KGDS 110035Z 05007KT 22/M06 A2971 RMK A01 T02231057  RH  015%=      5-min Rain = 0
KGDS 110040Z 05006KT 22/M06 A2971 RMK A01 T02221058  RH  015%=      5-min Rain = 0
KGDS 110045Z 04006KT 22/M06 A2971 RMK A01 T02181060  RH  015%=      5-min Rain = 0
KGDS 110050Z 04007KT 22/M06 A2971 RMK A01 T02171059  RH  015%=      5-min Rain = 0
KGDS 110055Z 04007KT 22/M06 A2971 RMK A01 T02171060  RH  015%=      5-min Rain = 0
KGDS 110100Z 04006KT 22/M06 A2971 RMK A01 T02171058  RH  015%=      5-min Rain = 0
KGDS 110105Z 05006KT 22/M05 A2971 RMK A01 T02161051  RH  016%=      5-min Rain = 0
KGDS 110110Z 05007KT 22/M05 A2971 RMK A01 T02191051  RH  016%=      5-min Rain = 0
KGDS 110115Z 05007KT 21/M05 A2971 RMK A01 T02141051  RH  017%=      5-min Rain = 0
KGDS 110120Z 05007KT 21/M05 A2971 RMK A01 T02101049  RH  017%=      5-min Rain = 0
KGDS 110125Z 05007KT 21/M04 A2971 RMK A01 T02091044  RH  018%=      5-min Rain = 0
KGDS 110130Z 05007KT 21/M04 A2972 RMK A01 T02081039  RH  019%=      5-min Rain = 0
KGDS 110135Z 05007KT 21/M03 A2972 RMK A01 T02061034  RH  020%=      5-min Rain = 0
KGDS 110140Z 04007KT 20/M03 A2973 RMK A01 T02011030  RH  021%=      5-min Rain = 0
KGDS 110145Z 04007KT 20/M02 A2973 RMK A01 T02001022  RH  022%=      5-min Rain = 0
KGDS 110150Z 03007KT 20/M02 A2973 RMK A01 T02001020  RH  023%=      5-min Rain = 0
KGDS 110155Z 03007KT 20/M02 A2974 RMK A01 T01981016  RH  024%=      5-min Rain = 0
KGDS 110200Z 04007KT 20/M01 A2974 RMK A01 T01971013  RH  024%=      5-min Rain = 0
KGDS 110205Z 04008KT 20/M01 A2975 RMK A01 T01951011  RH  025%=      5-min Rain = 0
KGDS 110210Z 03009KT 20/M01 A2975 RMK A01 T01971005  RH  026%=      5-min Rain = 0
KGDS 110215Z 03007KT 20/M00 A2975 RMK A01 T01961002  RH  027%=      5-min Rain = 0
KGDS 110220Z 03007KT 20/00 A2976 RMK A01 T01950001  RH  028%=      5-min Rain = 0
KGDS 110225Z 04008KT 19/00 A2976 RMK A01 T01930004  RH  028%=      5-min Rain = 0
KGDS 110230Z 04007KT 19/01 A2977 RMK A01 T01920006  RH  029%=      5-min Rain = 0
KGDS 110235Z 04006KT 19/01 A2977 RMK A01 T01900008  RH  030%=      5-min Rain = 0
KGDS 110240Z 04007KT 19/01 A2977 RMK A01 T01900011  RH  031%=      5-min Rain = 0
KGDS 110245Z 05008KT 19/02 A2977 RMK A01 T01910018  RH  032%=      5-min Rain = 0
KGDS 110250Z 06009KT 19/02 A2977 RMK A01 T01940024  RH  033%=      5-min Rain = 0
KGDS 110255Z 08008KT 19/03 A2978 RMK A01 T01920025  RH  033%=      5-min Rain = 0
KGDS 110300Z 07007KT 19/02 A2978 RMK A01 T01880022  RH  033%=      5-min Rain = 0
KGDS 110305Z 05008KT 18/02 A2979 RMK A01 T01840019  RH  034%=      5-min Rain = 0
KGDS 110310Z 05007KT 18/02 A2979 RMK A01 T01820021  RH  034%=      5-min Rain = 0
KGDS 110315Z 04007KT 18/03 A298 RMK A01 T01830027  RH  036%=      5-min Rain = 0
KGDS 110320Z 05007KT 18/03 A298 RMK A01 T01820032  RH  037%=      5-min Rain = 0
KGDS 110325Z 04007KT 18/04 A298 RMK A01 T01810036  RH  038%=      5-min Rain = 0
KGDS 110330Z 03007KT 18/04 A298 RMK A01 T01810038  RH  039%=      5-min Rain = 0
KGDS 110335Z 03007KT 18/04 A2981 RMK A01 T01800044  RH  041%=      5-min Rain = 0
KGDS 110340Z 03010KT 18/06 A2981 RMK A01 T01830059  RH  045%=      5-min Rain = 0
KGDS 110345Z 03011KT 18/07 A2981 RMK A01 T01840068  RH  047%=      5-min Rain = 0
KGDS 110350Z 03011KT 18/07 A2981 RMK A01 T01820071  RH  049%=      5-min Rain = 0
KGDS 110355Z 03010KT 18/08 A2982 RMK A01 T01790082  RH  054%=      5-min Rain = 0
KGDS 110400Z 02011KT 18/09 A2982 RMK A01 T01770085  RH  055%=      5-min Rain = 0
KGDS 110405Z 03012KT 18/09 A2983 RMK A01 T01750090  RH  058%=      5-min Rain = 0
KGDS 110410Z 02013KT 17/10 A2984 RMK A01 T01740096  RH  061%=      5-min Rain = 0
KGDS 110415Z 02015KT 17/10 A2984 RMK A01 T01730102  RH  064%=      5-min Rain = 0
KGDS 110420Z 03016G21KT 17/11 A2984 RMK A01 T01730107  RH  066%=      5-min Rain = 0
KGDS 110425Z 03015KT 17/11 A2985 RMK A01 T01720109  RH  067%=      5-min Rain = 0
KGDS 110430Z 03016G21KT 17/11 A2985 RMK A01 T01720111  RH  068%=      5-min Rain = 0
KGDS 110435Z 03017KT 17/11 A2985 RMK A01 T01720113  RH  069%=      5-min Rain = 0
KGDS 110440Z 03014KT 17/11 A2985 RMK A01 T01710113  RH  070%=      5-min Rain = 0
KGDS 110445Z 02013KT 17/11 A2985 RMK A01 T01690112  RH  070%=      5-min Rain = 0
KGDS 110450Z 02013KT 17/11 A2985 RMK A01 T01670110  RH  070%=      5-min Rain = 0
KGDS 110455Z 02014KT 17/11 A2986 RMK A01 T01660110  RH  071%=      5-min Rain = 0
KGDS 110500Z 02015G20KT 17/11 A2986 RMK A01 T01670110  RH  071%=      5-min Rain = 0
KGDS 110505Z 02016G21KT 17/11 A2986 RMK A01 T01670111  RH  071%=      5-min Rain = 0
KGDS 110510Z 02014G19KT 17/11 A2986 RMK A01 T01660111  RH  071%=      5-min Rain = 0
KGDS 110515Z 02017G22KT 17/11 A2986 RMK A01 T01660111  RH  071%=      5-min Rain = 0
KGDS 110520Z 02017G22KT 17/11 A2986 RMK A01 T01660111  RH  071%=      5-min Rain = 0
KGDS 110525Z 02016KT 16/11 A2987 RMK A01 T01640111  RH  072%=      5-min Rain = 0
KGDS 110530Z 02015G20KT 16/11 A2987 RMK A01 T01630111  RH  072%=      5-min Rain = 0
KGDS 110535Z 02015KT 16/11 A2987 RMK A01 T01620111  RH  073%=      5-min Rain = 0
KGDS 110540Z 01016KT 16/11 A2988 RMK A01 T01610111  RH  073%=      5-min Rain = 0
KGDS 110545Z 01017KT 16/11 A2988 RMK A01 T01610111  RH  074%=      5-min Rain = 0
KGDS 110550Z 01017KT 16/11 A2989 RMK A01 T01590111  RH  074%=      5-min Rain = 0
KGDS 110555Z 01017KT 16/11 A2989 RMK A01 T01580111  RH  075%=      5-min Rain = 0

Page generated in 0.0284 seconds.